This is the latest recevied weather packets stored in our database for station/object BadBuchau. If no packets are shown the sender has not sent any weather packets the latest 10 day(s).
| Time | Temp. | Humidity | Pressure | Rain* | Wind** | Luminosity | Snow |
|---|---|---|---|---|---|---|---|
| 1777712530 | 17.78° C | 48% | 1021.6 hPa | 0 mm | - | - | - |
| 1777710731 | 16.11° C | 53% | 1021.6 hPa | 0 mm | - | - | - |
| 1777708931 | 15° C | 52% | 1021.8 hPa | 0 mm | - | - | - |
| 1777707130 | 13.33° C | 57% | 1021.9 hPa | 0 mm | - | - | - |
| 1777705333 | 11.67° C | 61% | 1022.2 hPa | 0 mm | - | - | - |
| 1777703532 | 10° C | 68% | 1022.2 hPa | 0 mm | - | - | - |
| 1777701731 | 7.22° C | 78% | 1022.3 hPa | 0 mm | - | - | - |
| 1777699931 | 5.56° C | 78% | 1022.2 hPa | 0 mm | - | - | - |
| 1777698131 | 4.44° C | 77% | 1022.1 hPa | 0 mm | - | - | - |
| 1777696331 | 5° C | 78% | 1022.1 hPa | 0 mm | - | - | - |
| 1777694533 | 4.44° C | 79% | 1022 hPa | 0 mm | - | - | - |
| 1777692731 | 4.44° C | 77% | 1022 hPa | 0 mm | - | - | - |
| 1777690931 | 5.56° C | 76% | 1021.8 hPa | 0 mm | - | - | - |
| 1777689134 | 6.67° C | 69% | 1022 hPa | 0 mm | - | - | - |
| 1777687332 | 7.78° C | 70% | 1022.1 hPa | 0 mm | - | - | - |
| 1777685531 | 7.78° C | 67% | 1022.1 hPa | 0 mm | - | - | - |
| 1777683731 | 8.33° C | 65% | 1022.5 hPa | 0 mm | - | - | - |
| 1777681929 | 8.89° C | 64% | 1022.6 hPa | 0 mm | - | - | - |
| 1777680129 | 8.89° C | 63% | 1023 hPa | 0 mm | - | - | - |
| 1777678330 | 8.33° C | 64% | 1023.2 hPa | 0 mm | - | - | - |
| 1777676530 | 8.89° C | 62% | 1023.2 hPa | 0 mm | - | - | - |
| 1777674730 | 9.44° C | 60% | 1023.4 hPa | 0 mm | - | - | - |
| 1777672931 | 11.11° C | 54% | 1023.3 hPa | 0 mm | - | - | - |
| 1777671130 | 12.78° C | 49% | 1023.3 hPa | 0 mm | - | - | - |
| 1777669330 | 12.78° C | 47% | 1023.3 hPa | 0 mm | - | - | - |
* Rain since midnight (hover to see other rain measurements)
** Current wind speed in m/s (hover to see current wind gust speed)